sensor_id;sensor_type;location;lat;lon;timestamp;temperature;humidity
13093;DHT22;6612;49.568;11.000;2023-04-01T00:02:08;12.10;64.20
13093;DHT22;6612;49.568;11.000;2023-04-01T00:04:35;12.10;64.40
13093;DHT22;6612;49.568;11.000;2023-04-01T00:07:02;12.10;64.50
13093;DHT22;6612;49.568;11.000;2023-04-01T00:09:29;12.10;64.60
13093;DHT22;6612;49.568;11.000;2023-04-01T00:11:58;12.00;64.70
13093;DHT22;6612;49.568;11.000;2023-04-01T00:14:25;12.00;65.00
13093;DHT22;6612;49.568;11.000;2023-04-01T00:16:52;12.00;65.30
13093;DHT22;6612;49.568;11.000;2023-04-01T00:19:19;12.00;65.70
13093;DHT22;6612;49.568;11.000;2023-04-01T00:21:46;12.10;66.10
13093;DHT22;6612;49.568;11.000;2023-04-01T00:24:13;12.10;66.40
13093;DHT22;6612;49.568;11.000;2023-04-01T00:26:40;12.10;66.60
13093;DHT22;6612;49.568;11.000;2023-04-01T00:29:11;12.20;66.80
13093;DHT22;6612;49.568;11.000;2023-04-01T00:31:38;12.30;66.90
13093;DHT22;6612;49.568;11.000;2023-04-01T00:34:05;12.30;67.00
13093;DHT22;6612;49.568;11.000;2023-04-01T00:36:32;12.40;67.20
13093;DHT22;6612;49.568;11.000;2023-04-01T00:38:59;12.50;67.20
13093;DHT22;6612;49.568;11.000;2023-04-01T00:41:27;12.50;67.10
13093;DHT22;6612;49.568;11.000;2023-04-01T00:44:14;12.60;67.20
13093;DHT22;6612;49.568;11.000;2023-04-01T00:46:41;12.60;66.70
13093;DHT22;6612;49.568;11.000;2023-04-01T00:49:09;12.70;67.10
13093;DHT22;6612;49.568;11.000;2023-04-01T00:51:37;12.70;67.00
13093;DHT22;6612;49.568;11.000;2023-04-01T00:54:07;12.70;66.80
13093;DHT22;6612;49.568;11.000;2023-04-01T00:56:36;12.80;66.90
13093;DHT22;6612;49.568;11.000;2023-04-01T00:59:08;12.80;66.90
13093;DHT22;6612;49.568;11.000;2023-04-01T01:01:37;12.90;66.90
13093;DHT22;6612;49.568;11.000;2023-04-01T01:04:05;12.90;66.80
13093;DHT22;6612;49.568;11.000;2023-04-01T01:06:40;12.90;66.80
13093;DHT22;6612;49.568;11.000;2023-04-01T01:09:22;13.00;66.50
13093;DHT22;6612;49.568;11.000;2023-04-01T01:11:56;13.00;66.50
13093;DHT22;6612;49.568;11.000;2023-04-01T01:14:36;13.00;66.50
13093;DHT22;6612;49.568;11.000;2023-04-01T01:17:13;13.10;66.20
13093;DHT22;6612;49.568;11.000;2023-04-01T01:20:03;13.10;66.10
13093;DHT22;6612;49.568;11.000;2023-04-01T01:22:44;13.10;65.70
13093;DHT22;6612;49.568;11.000;2023-04-01T01:25:31;13.20;66.00
13093;DHT22;6612;49.568;11.000;2023-04-01T01:28:16;13.20;65.60
13093;DHT22;6612;49.568;11.000;2023-04-01T01:30:52;13.20;65.90
13093;DHT22;6612;49.568;11.000;2023-04-01T01:33:39;13.20;66.00
13093;DHT22;6612;49.568;11.000;2023-04-01T01:36:14;13.20;65.80
13093;DHT22;6612;49.568;11.000;2023-04-01T01:38:43;13.30;66.20
13093;DHT22;6612;49.568;11.000;2023-04-01T01:41:12;13.30;66.30
13093;DHT22;6612;49.568;11.000;2023-04-01T01:43:43;13.30;66.10
13093;DHT22;6612;49.568;11.000;2023-04-01T01:46:16;13.30;66.10
13093;DHT22;6612;49.568;11.000;2023-04-01T01:48:45;13.30;66.00
13093;DHT22;6612;49.568;11.000;2023-04-01T01:51:13;13.30;66.10
13093;DHT22;6612;49.568;11.000;2023-04-01T01:53:41;13.30;66.00
13093;DHT22;6612;49.568;11.000;2023-04-01T01:56:10;13.30;65.90
13093;DHT22;6612;49.568;11.000;2023-04-01T01:58:41;13.30;65.70
13093;DHT22;6612;49.568;11.000;2023-04-01T02:01:13;13.30;65.50
13093;DHT22;6612;49.568;11.000;2023-04-01T02:03:42;13.40;65.20
13093;DHT22;6612;49.568;11.000;2023-04-01T02:06:17;13.30;64.90
13093;DHT22;6612;49.568;11.000;2023-04-01T02:08:47;13.30;64.60
13093;DHT22;6612;49.568;11.000;2023-04-01T02:11:19;13.30;64.70
13093;DHT22;6612;49.568;11.000;2023-04-01T02:13:51;13.20;64.80
13093;DHT22;6612;49.568;11.000;2023-04-01T02:16:22;13.20;64.70
13093;DHT22;6612;49.568;11.000;2023-04-01T02:18:52;13.20;64.80
13093;DHT22;6612;49.568;11.000;2023-04-01T02:21:24;13.20;64.70
13093;DHT22;6612;49.568;11.000;2023-04-01T02:23:53;13.20;64.60
13093;DHT22;6612;49.568;11.000;2023-04-01T02:26:21;13.20;64.70
13093;DHT22;6612;49.568;11.000;2023-04-01T02:28:50;13.20;64.80
13093;DHT22;6612;49.568;11.000;2023-04-01T02:31:17;13.20;64.90
13093;DHT22;6612;49.568;11.000;2023-04-01T02:33:45;13.20;65.00
13093;DHT22;6612;49.568;11.000;2023-04-01T02:36:13;13.20;65.00
13093;DHT22;6612;49.568;11.000;2023-04-01T02:38:44;13.20;65.20
13093;DHT22;6612;49.568;11.000;2023-04-01T02:41:12;13.20;64.90
13093;DHT22;6612;49.568;11.000;2023-04-01T02:43:39;13.20;65.20
13093;DHT22;6612;49.568;11.000;2023-04-01T02:46:06;13.20;65.10
13093;DHT22;6612;49.568;11.000;2023-04-01T02:48:33;13.30;65.20
13093;DHT22;6612;49.568;11.000;2023-04-01T02:51:01;13.30;65.20
13093;DHT22;6612;49.568;11.000;2023-04-01T02:53:28;13.30;65.20
13093;DHT22;6612;49.568;11.000;2023-04-01T02:55:56;13.30;65.10
13093;DHT22;6612;49.568;11.000;2023-04-01T02:58:23;13.30;65.00
13093;DHT22;6612;49.568;11.000;2023-04-01T03:00:50;13.30;65.00
13093;DHT22;6612;49.568;11.000;2023-04-01T03:03:17;13.40;65.10
13093;DHT22;6612;49.568;11.000;2023-04-01T03:05:44;13.40;65.00
13093;DHT22;6612;49.568;11.000;2023-04-01T03:08:11;13.40;65.00
13093;DHT22;6612;49.568;11.000;2023-04-01T03:10:38;13.40;64.90
13093;DHT22;6612;49.568;11.000;2023-04-01T03:13:07;13.40;64.80
13093;DHT22;6612;49.568;11.000;2023-04-01T03:15:34;13.40;64.50
13093;DHT22;6612;49.568;11.000;2023-04-01T03:18:01;13.40;64.70
13093;DHT22;6612;49.568;11.000;2023-04-01T03:20:28;13.40;64.50
13093;DHT22;6612;49.568;11.000;2023-04-01T03:22:55;13.40;64.50
13093;DHT22;6612;49.568;11.000;2023-04-01T03:25:22;13.40;64.40
13093;DHT22;6612;49.568;11.000;2023-04-01T03:27:50;13.40;64.30
13093;DHT22;6612;49.568;11.000;2023-04-01T03:30:18;13.40;64.30
13093;DHT22;6612;49.568;11.000;2023-04-01T03:32:45;13.40;64.30
13093;DHT22;6612;49.568;11.000;2023-04-01T03:35:12;13.40;64.50
13093;DHT22;6612;49.568;11.000;2023-04-01T03:37:39;13.40;64.40
13093;DHT22;6612;49.568;11.000;2023-04-01T03:40:07;13.40;64.40
13093;DHT22;6612;49.568;11.000;2023-04-01T03:42:35;13.40;64.40
13093;DHT22;6612;49.568;11.000;2023-04-01T03:45:03;13.40;64.40
13093;DHT22;6612;49.568;11.000;2023-04-01T03:47:31;13.40;64.40
13093;DHT22;6612;49.568;11.000;2023-04-01T03:49:58;13.40;64.20
13093;DHT22;6612;49.568;11.000;2023-04-01T03:52:25;13.40;64.40
13093;DHT22;6612;49.568;11.000;2023-04-01T03:54:52;13.40;64.30
13093;DHT22;6612;49.568;11.000;2023-04-01T03:57:19;13.40;64.30
13093;DHT22;6612;49.568;11.000;2023-04-01T03:59:46;13.40;64.10
13093;DHT22;6612;49.568;11.000;2023-04-01T04:02:13;13.40;64.10
13093;DHT22;6612;49.568;11.000;2023-04-01T04:04:42;13.30;64.00
13093;DHT22;6612;49.568;11.000;2023-04-01T04:07:09;13.40;64.00
13093;DHT22;6612;49.568;11.000;2023-04-01T04:09:36;13.40;64.10
13093;DHT22;6612;49.568;11.000;2023-04-01T04:12:03;13.30;64.00
13093;DHT22;6612;49.568;11.000;2023-04-01T04:14:31;13.30;64.00
13093;DHT22;6612;49.568;11.000;2023-04-01T04:16:58;13.30;63.90
13093;DHT22;6612;49.568;11.000;2023-04-01T04:19:25;13.30;63.90
13093;DHT22;6612;49.568;11.000;2023-04-01T04:21:53;13.30;64.00
13093;DHT22;6612;49.568;11.000;2023-04-01T04:24:20;13.30;63.80
13093;DHT22;6612;49.568;11.000;2023-04-01T04:26:47;13.30;63.90
13093;DHT22;6612;49.568;11.000;2023-04-01T04:29:14;13.30;63.90
13093;DHT22;6612;49.568;11.000;2023-04-01T04:31:41;13.30;64.00
13093;DHT22;6612;49.568;11.000;2023-04-01T04:34:09;13.30;63.90
13093;DHT22;6612;49.568;11.000;2023-04-01T04:36:36;13.30;63.90
13093;DHT22;6612;49.568;11.000;2023-04-01T04:39:04;13.30;63.90
13093;DHT22;6612;49.568;11.000;2023-04-01T04:41:31;13.30;63.70
13093;DHT22;6612;49.568;11.000;2023-04-01T04:43:58;13.40;63.90
13093;DHT22;6612;49.568;11.000;2023-04-01T04:46:25;13.40;63.90
13093;DHT22;6612;49.568;11.000;2023-04-01T04:48:52;13.30;63.70
13093;DHT22;6612;49.568;11.000;2023-04-01T04:51:20;13.40;63.90
13093;DHT22;6612;49.568;11.000;2023-04-01T04:53:47;13.30;63.80
13093;DHT22;6612;49.568;11.000;2023-04-01T04:56:19;13.40;63.80
13093;DHT22;6612;49.568;11.000;2023-04-01T04:58:46;13.40;63.60
13093;DHT22;6612;49.568;11.000;2023-04-01T05:01:15;13.40;63.90
13093;DHT22;6612;49.568;11.000;2023-04-01T05:03:42;13.30;63.80
13093;DHT22;6612;49.568;11.000;2023-04-01T05:06:11;13.30;63.90
13093;DHT22;6612;49.568;11.000;2023-04-01T05:08:39;13.40;63.90
13093;DHT22;6612;49.568;11.000;2023-04-01T05:11:09;13.30;63.80
13093;DHT22;6612;49.568;11.000;2023-04-01T05:13:37;13.30;63.80
13093;DHT22;6612;49.568;11.000;2023-04-01T05:16:08;13.40;63.80
13093;DHT22;6612;49.568;11.000;2023-04-01T05:18:35;13.30;63.60
13093;DHT22;6612;49.568;11.000;2023-04-01T05:21:03;13.40;64.00
13093;DHT22;6612;49.568;11.000;2023-04-01T05:23:32;13.40;64.10
13093;DHT22;6612;49.568;11.000;2023-04-01T05:26:03;13.40;63.90
13093;DHT22;6612;49.568;11.000;2023-04-01T05:28:30;13.40;64.00
13093;DHT22;6612;49.568;11.000;2023-04-01T05:31:00;13.40;64.20
13093;DHT22;6612;49.568;11.000;2023-04-01T05:33:27;13.40;64.00
13093;DHT22;6612;49.568;11.000;2023-04-01T05:35:55;13.40;64.20
13093;DHT22;6612;49.568;11.000;2023-04-01T05:38:22;13.40;64.10
13093;DHT22;6612;49.568;11.000;2023-04-01T05:40:49;13.40;64.20
13093;DHT22;6612;49.568;11.000;2023-04-01T05:43:16;13.40;64.20
13093;DHT22;6612;49.568;11.000;2023-04-01T05:45:43;13.40;64.10
13093;DHT22;6612;49.568;11.000;2023-04-01T05:48:11;13.50;64.20
13093;DHT22;6612;49.568;11.000;2023-04-01T05:50:40;13.50;64.00
13093;DHT22;6612;49.568;11.000;2023-04-01T05:53:07;13.50;64.00
13093;DHT22;6612;49.568;11.000;2023-04-01T05:55:34;13.50;64.10
13093;DHT22;6612;49.568;11.000;2023-04-01T05:58:02;13.50;64.00
13093;DHT22;6612;49.568;11.000;2023-04-01T06:00:29;13.50;64.00
13093;DHT22;6612;49.568;11.000;2023-04-01T06:02:58;13.50;64.00
13093;DHT22;6612;49.568;11.000;2023-04-01T06:05:28;13.50;63.90
13093;DHT22;6612;49.568;11.000;2023-04-01T06:07:59;13.50;64.00
13093;DHT22;6612;49.568;11.000;2023-04-01T06:10:36;13.50;64.00
13093;DHT22;6612;49.568;11.000;2023-04-01T06:13:12;13.60;63.80
13093;DHT22;6612;49.568;11.000;2023-04-01T06:15:48;13.60;64.20
13093;DHT22;6612;49.568;11.000;2023-04-01T06:18:46;13.70;64.80
13093;DHT22;6612;49.568;11.000;2023-04-01T06:27:19;13.90;64.70
13093;DHT22;6612;49.568;11.000;2023-04-01T06:30:01;14.00;65.40
13093;DHT22;6612;49.568;11.000;2023-04-01T06:32:42;14.10;66.90
13093;DHT22;6612;49.568;11.000;2023-04-01T06:35:22;14.40;69.00
13093;DHT22;6612;49.568;11.000;2023-04-01T06:38:18;14.80;69.10
13093;DHT22;6612;49.568;11.000;2023-04-01T06:43:50;15.50;68.30
13093;DHT22;6612;49.568;11.000;2023-04-01T06:46:26;15.90;68.50
13093;DHT22;6612;49.568;11.000;2023-04-01T06:49:12;16.30;68.40
13093;DHT22;6612;49.568;11.000;2023-04-01T06:51:48;16.50;66.60
13093;DHT22;6612;49.568;11.000;2023-04-01T06:54:21;16.80;65.80
13093;DHT22;6612;49.568;11.000;2023-04-01T06:56:53;16.90;64.40
13093;DHT22;6612;49.568;11.000;2023-04-01T06:59:25;17.00;63.50
13093;DHT22;6612;49.568;11.000;2023-04-01T07:01:55;17.00;63.00
13093;DHT22;6612;49.568;11.000;2023-04-01T07:04:26;17.00;62.70
13093;DHT22;6612;49.568;11.000;2023-04-01T07:06:58;17.00;62.30
13093;DHT22;6612;49.568;11.000;2023-04-01T07:09:31;17.00;61.80
13093;DHT22;6612;49.568;11.000;2023-04-01T07:12:02;16.90;61.20
13093;DHT22;6612;49.568;11.000;2023-04-01T07:14:34;16.90;61.00
13093;DHT22;6612;49.568;11.000;2023-04-01T07:17:06;16.80;60.80
13093;DHT22;6612;49.568;11.000;2023-04-01T07:19:36;16.80;60.20
13093;DHT22;6612;49.568;11.000;2023-04-01T07:22:16;16.80;61.50
13093;DHT22;6612;49.568;11.000;2023-04-01T07:24:48;16.80;59.90
13093;DHT22;6612;49.568;11.000;2023-04-01T07:27:15;16.80;60.60
13093;DHT22;6612;49.568;11.000;2023-04-01T07:29:42;16.80;60.60
13093;DHT22;6612;49.568;11.000;2023-04-01T07:32:16;16.80;60.20
13093;DHT22;6612;49.568;11.000;2023-04-01T07:35:09;16.80;59.50
13093;DHT22;6612;49.568;11.000;2023-04-01T07:37:45;16.80;59.30
13093;DHT22;6612;49.568;11.000;2023-04-01T07:40:21;16.80;60.60
13093;DHT22;6612;49.568;11.000;2023-04-01T07:43:12;16.90;60.30
13093;DHT22;6612;49.568;11.000;2023-04-01T07:45:49;17.00;59.20
13093;DHT22;6612;49.568;11.000;2023-04-01T07:48:23;17.10;59.70
13093;DHT22;6612;49.568;11.000;2023-04-01T07:50:58;17.10;59.70
13093;DHT22;6612;49.568;11.000;2023-04-01T07:53:30;17.10;59.30
13093;DHT22;6612;49.568;11.000;2023-04-01T07:56:06;17.10;59.20
13093;DHT22;6612;49.568;11.000;2023-04-01T07:58:43;17.10;58.50
13093;DHT22;6612;49.568;11.000;2023-04-01T08:01:17;17.10;58.50
13093;DHT22;6612;49.568;11.000;2023-04-01T08:04:02;17.10;58.20
13093;DHT22;6612;49.568;11.000;2023-04-01T08:06:35;17.00;57.80
13093;DHT22;6612;49.568;11.000;2023-04-01T08:09:09;17.10;59.20
13093;DHT22;6612;49.568;11.000;2023-04-01T08:11:51;17.10;58.90
13093;DHT22;6612;49.568;11.000;2023-04-01T08:14:26;17.10;58.50
13093;DHT22;6612;49.568;11.000;2023-04-01T08:17:01;17.20;58.70
13093;DHT22;6612;49.568;11.000;2023-04-01T08:19:36;17.20;58.50
13093;DHT22;6612;49.568;11.000;2023-04-01T08:22:12;17.20;58.30
13093;DHT22;6612;49.568;11.000;2023-04-01T08:24:45;17.20;58.00
13093;DHT22;6612;49.568;11.000;2023-04-01T08:27:17;17.20;58.10
13093;DHT22;6612;49.568;11.000;2023-04-01T08:29:51;17.20;57.50
13093;DHT22;6612;49.568;11.000;2023-04-01T08:32:23;17.10;57.40
13093;DHT22;6612;49.568;11.000;2023-04-01T08:35:02;17.00;57.40
13093;DHT22;6612;49.568;11.000;2023-04-01T08:37:36;17.00;57.30
13093;DHT22;6612;49.568;11.000;2023-04-01T08:40:25;17.00;57.60
13093;DHT22;6612;49.568;11.000;2023-04-01T08:43:07;16.90;56.70
13093;DHT22;6612;49.568;11.000;2023-04-01T08:45:47;16.90;56.90
13093;DHT22;6612;49.568;11.000;2023-04-01T08:48:32;16.80;57.10
13093;DHT22;6612;49.568;11.000;2023-04-01T08:54:25;16.70;56.40
13093;DHT22;6612;49.568;11.000;2023-04-01T08:57:00;16.70;56.40
13093;DHT22;6612;49.568;11.000;2023-04-01T08:59:55;16.70;57.60
13093;DHT22;6612;49.568;11.000;2023-04-01T09:08:20;16.60;57.20
13093;DHT22;6612;49.568;11.000;2023-04-01T09:10:59;16.60;56.90
13093;DHT22;6612;49.568;11.000;2023-04-01T09:13:48;16.70;57.40
13093;DHT22;6612;49.568;11.000;2023-04-01T09:16:43;16.70;57.00
13093;DHT22;6612;49.568;11.000;2023-04-01T09:19:28;16.70;57.60
13093;DHT22;6612;49.568;11.000;2023-04-01T09:22:20;16.70;57.60
13093;DHT22;6612;49.568;11.000;2023-04-01T09:27:57;16.70;57.40
13093;DHT22;6612;49.568;11.000;2023-04-01T09:36:56;16.80;57.00
13093;DHT22;6612;49.568;11.000;2023-04-01T09:39:36;16.80;58.00
13093;DHT22;6612;49.568;11.000;2023-04-01T09:44:58;16.80;58.00
13093;DHT22;6612;49.568;11.000;2023-04-01T09:47:40;16.80;57.80
13093;DHT22;6612;49.568;11.000;2023-04-01T09:50:28;16.80;57.10
13093;DHT22;6612;49.568;11.000;2023-04-01T09:53:04;16.80;56.80
13093;DHT22;6612;49.568;11.000;2023-04-01T10:02:08;16.80;57.50
13093;DHT22;6612;49.568;11.000;2023-04-01T10:05:04;16.80;57.90
13093;DHT22;6612;49.568;11.000;2023-04-01T10:08:14;16.80;58.30
13093;DHT22;6612;49.568;11.000;2023-04-01T10:11:05;16.90;58.50
13093;DHT22;6612;49.568;11.000;2023-04-01T10:14:07;16.90;58.70
13093;DHT22;6612;49.568;11.000;2023-04-01T10:17:17;16.90;58.50
13093;DHT22;6612;49.568;11.000;2023-04-01T10:23:24;16.90;58.30
13093;DHT22;6612;49.568;11.000;2023-04-01T10:26:12;16.90;58.40
13093;DHT22;6612;49.568;11.000;2023-04-01T10:29:11;16.90;58.80
13093;DHT22;6612;49.568;11.000;2023-04-01T10:32:29;16.90;59.00
13093;DHT22;6612;49.568;11.000;2023-04-01T10:35:20;17.00;59.50
13093;DHT22;6612;49.568;11.000;2023-04-01T10:38:13;17.00;60.00
13093;DHT22;6612;49.568;11.000;2023-04-01T10:44:05;17.20;60.00
13093;DHT22;6612;49.568;11.000;2023-04-01T10:47:19;17.30;59.90
13093;DHT22;6612;49.568;11.000;2023-04-01T10:50:11;17.30;59.40
13093;DHT22;6612;49.568;11.000;2023-04-01T10:53:30;17.30;59.50
13093;DHT22;6612;49.568;11.000;2023-04-01T10:59:40;17.30;58.90
13093;DHT22;6612;49.568;11.000;2023-04-01T11:02:45;17.30;59.00
13093;DHT22;6612;49.568;11.000;2023-04-01T11:09:13;17.20;59.30
13093;DHT22;6612;49.568;11.000;2023-04-01T11:12:03;17.10;59.40
13093;DHT22;6612;49.568;11.000;2023-04-01T11:18:18;17.10;59.60
13093;DHT22;6612;49.568;11.000;2023-04-01T11:21:29;17.10;59.60
13093;DHT22;6612;49.568;11.000;2023-04-01T11:24:20;17.10;59.50
13093;DHT22;6612;49.568;11.000;2023-04-01T11:26:56;17.00;59.80
13093;DHT22;6612;49.568;11.000;2023-04-01T11:29:47;17.00;60.10
13093;DHT22;6612;49.568;11.000;2023-04-01T11:32:33;17.00;59.40
13093;DHT22;6612;49.568;11.000;2023-04-01T11:38:28;16.90;59.50
13093;DHT22;6612;49.568;11.000;2023-04-01T11:41:06;16.90;59.60
13093;DHT22;6612;49.568;11.000;2023-04-01T11:43:39;16.90;60.10
13093;DHT22;6612;49.568;11.000;2023-04-01T11:46:10;16.80;60.10
13093;DHT22;6612;49.568;11.000;2023-04-01T11:48:56;16.80;60.20
13093;DHT22;6612;49.568;11.000;2023-04-01T11:51:50;16.80;59.90
13093;DHT22;6612;49.568;11.000;2023-04-01T11:54:34;16.90;59.90
13093;DHT22;6612;49.568;11.000;2023-04-01T11:57:18;16.90;60.40
13093;DHT22;6612;49.568;11.000;2023-04-01T12:00:25;16.90;60.40
13093;DHT22;6612;49.568;11.000;2023-04-01T12:03:13;16.90;59.50
13093;DHT22;6612;49.568;11.000;2023-04-01T12:05:46;16.90;59.70
13093;DHT22;6612;49.568;11.000;2023-04-01T12:08:27;16.90;60.50
13093;DHT22;6612;49.568;11.000;2023-04-01T12:11:04;16.90;60.40
13093;DHT22;6612;49.568;11.000;2023-04-01T12:13:40;16.90;60.90
13093;DHT22;6612;49.568;11.000;2023-04-01T12:16:23;17.00;60.80
13093;DHT22;6612;49.568;11.000;2023-04-01T12:18:57;17.00;60.70
13093;DHT22;6612;49.568;11.000;2023-04-01T12:21:31;17.00;61.30
13093;DHT22;6612;49.568;11.000;2023-04-01T12:24:25;17.10;61.30
13093;DHT22;6612;49.568;11.000;2023-04-01T12:27:35;17.10;60.40
13093;DHT22;6612;49.568;11.000;2023-04-01T12:30:46;17.20;59.60
13093;DHT22;6612;49.568;11.000;2023-04-01T12:33:48;17.20;59.70
13093;DHT22;6612;49.568;11.000;2023-04-01T12:36:40;17.20;59.80
13093;DHT22;6612;49.568;11.000;2023-04-01T12:39:27;17.20;59.70
13093;DHT22;6612;49.568;11.000;2023-04-01T12:42:04;17.10;59.70
13093;DHT22;6612;49.568;11.000;2023-04-01T12:44:41;17.10;61.00
13093;DHT22;6612;49.568;11.000;2023-04-01T12:47:39;17.10;60.30
13093;DHT22;6612;49.568;11.000;2023-04-01T12:50:39;17.00;59.80
13093;DHT22;6612;49.568;11.000;2023-04-01T12:53:25;17.00;59.70
13093;DHT22;6612;49.568;11.000;2023-04-01T12:56:02;17.00;59.90
13093;DHT22;6612;49.568;11.000;2023-04-01T12:58:54;16.90;60.30
13093;DHT22;6612;49.568;11.000;2023-04-01T13:01:47;16.90;59.70
13093;DHT22;6612;49.568;11.000;2023-04-01T13:04:47;16.90;60.30
13093;DHT22;6612;49.568;11.000;2023-04-01T13:07:39;16.80;59.70
13093;DHT22;6612;49.568;11.000;2023-04-01T13:10:20;16.80;59.90
13093;DHT22;6612;49.568;11.000;2023-04-01T13:13:14;16.70;60.50
13093;DHT22;6612;49.568;11.000;2023-04-01T13:15:45;16.70;60.40
13093;DHT22;6612;49.568;11.000;2023-04-01T13:18:22;16.70;61.40
13093;DHT22;6612;49.568;11.000;2023-04-01T13:20:57;16.70;61.20
13093;DHT22;6612;49.568;11.000;2023-04-01T13:23:34;16.70;61.30
13093;DHT22;6612;49.568;11.000;2023-04-01T13:26:11;16.70;61.30
13093;DHT22;6612;49.568;11.000;2023-04-01T13:28:45;16.70;61.70
13093;DHT22;6612;49.568;11.000;2023-04-01T13:31:30;16.70;61.80
13093;DHT22;6612;49.568;11.000;2023-04-01T13:34:13;16.70;61.50
13093;DHT22;6612;49.568;11.000;2023-04-01T13:36:55;16.70;61.60
13093;DHT22;6612;49.568;11.000;2023-04-01T13:39:36;16.70;61.50
13093;DHT22;6612;49.568;11.000;2023-04-01T13:42:14;16.70;61.60
13093;DHT22;6612;49.568;11.000;2023-04-01T13:44:48;16.70;61.70
13093;DHT22;6612;49.568;11.000;2023-04-01T13:50:53;16.70;61.30
13093;DHT22;6612;49.568;11.000;2023-04-01T13:53:33;16.70;61.10
13093;DHT22;6612;49.568;11.000;2023-04-01T13:56:11;16.70;61.50
13093;DHT22;6612;49.568;11.000;2023-04-01T13:59:04;16.70;61.70
13093;DHT22;6612;49.568;11.000;2023-04-01T14:01:40;16.70;61.20
13093;DHT22;6612;49.568;11.000;2023-04-01T14:07:22;16.70;61.70
13093;DHT22;6612;49.568;11.000;2023-04-01T14:10:18;16.70;61.30
13093;DHT22;6612;49.568;11.000;2023-04-01T14:12:50;16.70;61.40
13093;DHT22;6612;49.568;11.000;2023-04-01T14:15:34;16.70;62.20
13093;DHT22;6612;49.568;11.000;2023-04-01T14:18:29;16.70;63.00
13093;DHT22;6612;49.568;11.000;2023-04-01T14:21:14;16.70;61.80
13093;DHT22;6612;49.568;11.000;2023-04-01T14:27:26;16.70;61.70
13093;DHT22;6612;49.568;11.000;2023-04-01T14:33:04;16.80;62.10
13093;DHT22;6612;49.568;11.000;2023-04-01T14:35:43;16.70;62.40
13093;DHT22;6612;49.568;11.000;2023-04-01T14:38:26;16.70;62.40
13093;DHT22;6612;49.568;11.000;2023-04-01T14:40:58;16.70;62.50
13093;DHT22;6612;49.568;11.000;2023-04-01T14:43:47;16.70;62.90
13093;DHT22;6612;49.568;11.000;2023-04-01T14:49:20;16.70;62.40
13093;DHT22;6612;49.568;11.000;2023-04-01T14:51:51;16.70;62.20
13093;DHT22;6612;49.568;11.000;2023-04-01T14:54:30;16.60;62.20
13093;DHT22;6612;49.568;11.000;2023-04-01T14:57:05;16.60;62.40
13093;DHT22;6612;49.568;11.000;2023-04-01T14:59:40;16.60;62.20
13093;DHT22;6612;49.568;11.000;2023-04-01T15:02:21;16.50;62.30
13093;DHT22;6612;49.568;11.000;2023-04-01T15:04:58;16.50;62.00
13093;DHT22;6612;49.568;11.000;2023-04-01T15:08:05;16.50;62.60
13093;DHT22;6612;49.568;11.000;2023-04-01T15:11:04;16.50;62.00
13093;DHT22;6612;49.568;11.000;2023-04-01T15:13:54;16.40;62.40
13093;DHT22;6612;49.568;11.000;2023-04-01T15:16:29;16.40;62.10
13093;DHT22;6612;49.568;11.000;2023-04-01T15:19:08;16.40;62.60
13093;DHT22;6612;49.568;11.000;2023-04-01T15:21:54;16.30;62.30
13093;DHT22;6612;49.568;11.000;2023-04-01T15:24:26;16.30;62.30
13093;DHT22;6612;49.568;11.000;2023-04-01T15:27:12;16.30;62.70
13093;DHT22;6612;49.568;11.000;2023-04-01T15:29:56;16.20;62.50
13093;DHT22;6612;49.568;11.000;2023-04-01T15:32:32;16.20;62.70
13093;DHT22;6612;49.568;11.000;2023-04-01T15:35:14;16.20;63.10
13093;DHT22;6612;49.568;11.000;2023-04-01T15:37:50;16.20;63.10
13093;DHT22;6612;49.568;11.000;2023-04-01T15:40:25;16.20;63.40
13093;DHT22;6612;49.568;11.000;2023-04-01T15:43:03;16.20;63.30
13093;DHT22;6612;49.568;11.000;2023-04-01T15:45:43;16.20;63.20
13093;DHT22;6612;49.568;11.000;2023-04-01T15:48:20;16.20;63.10
13093;DHT22;6612;49.568;11.000;2023-04-01T15:54:06;16.20;63.10
13093;DHT22;6612;49.568;11.000;2023-04-01T15:56:49;16.20;63.00
13093;DHT22;6612;49.568;11.000;2023-04-01T15:59:41;16.20;62.70
13093;DHT22;6612;49.568;11.000;2023-04-01T16:02:19;16.20;62.90
13093;DHT22;6612;49.568;11.000;2023-04-01T16:04:54;16.20;62.90
13093;DHT22;6612;49.568;11.000;2023-04-01T16:07:38;16.20;63.00
13093;DHT22;6612;49.568;11.000;2023-04-01T16:10:18;16.20;62.70
13093;DHT22;6612;49.568;11.000;2023-04-01T16:13:02;16.20;62.40
13093;DHT22;6612;49.568;11.000;2023-04-01T16:15:37;16.10;62.30
13093;DHT22;6612;49.568;11.000;2023-04-01T16:21:06;16.00;61.70
13093;DHT22;6612;49.568;11.000;2023-04-01T16:23:37;16.00;62.10
13093;DHT22;6612;49.568;11.000;2023-04-01T16:26:08;15.90;62.20
13093;DHT22;6612;49.568;11.000;2023-04-01T16:28:48;15.80;62.00
13093;DHT22;6612;49.568;11.000;2023-04-01T16:31:29;15.80;62.00
13093;DHT22;6612;49.568;11.000;2023-04-01T16:34:02;15.70;61.80
13093;DHT22;6612;49.568;11.000;2023-04-01T16:36:35;15.70;62.10
13093;DHT22;6612;49.568;11.000;2023-04-01T16:39:17;15.60;62.10
13093;DHT22;6612;49.568;11.000;2023-04-01T16:41:49;15.60;62.00
13093;DHT22;6612;49.568;11.000;2023-04-01T16:44:22;15.50;62.40
13093;DHT22;6612;49.568;11.000;2023-04-01T16:46:52;15.50;62.60
13093;DHT22;6612;49.568;11.000;2023-04-01T16:49:29;15.40;62.70
13093;DHT22;6612;49.568;11.000;2023-04-01T16:52:12;15.40;62.60
13093;DHT22;6612;49.568;11.000;2023-04-01T16:54:44;15.30;62.30
13093;DHT22;6612;49.568;11.000;2023-04-01T16:57:21;15.30;62.60
13093;DHT22;6612;49.568;11.000;2023-04-01T16:59:58;15.30;62.50
13093;DHT22;6612;49.568;11.000;2023-04-01T17:02:33;15.20;62.50
13093;DHT22;6612;49.568;11.000;2023-04-01T17:05:05;15.20;62.80
13093;DHT22;6612;49.568;11.000;2023-04-01T17:07:46;15.10;62.80
13093;DHT22;6612;49.568;11.000;2023-04-01T17:10:35;15.10;62.50
13093;DHT22;6612;49.568;11.000;2023-04-01T17:13:26;15.10;62.60
13093;DHT22;6612;49.568;11.000;2023-04-01T17:16:07;15.10;62.70
13093;DHT22;6612;49.568;11.000;2023-04-01T17:18:47;15.00;62.90
13093;DHT22;6612;49.568;11.000;2023-04-01T17:21:22;15.00;63.10
13093;DHT22;6612;49.568;11.000;2023-04-01T17:23:53;15.00;63.20
13093;DHT22;6612;49.568;11.000;2023-04-01T17:26:32;14.90;63.50
13093;DHT22;6612;49.568;11.000;2023-04-01T17:29:12;14.90;63.40
13093;DHT22;6612;49.568;11.000;2023-04-01T17:31:55;14.90;63.50
13093;DHT22;6612;49.568;11.000;2023-04-01T17:34:46;14.90;63.20
13093;DHT22;6612;49.568;11.000;2023-04-01T17:37:33;14.90;63.20
13093;DHT22;6612;49.568;11.000;2023-04-01T17:40:26;14.90;63.40
13093;DHT22;6612;49.568;11.000;2023-04-01T17:43:02;14.80;63.10
13093;DHT22;6612;49.568;11.000;2023-04-01T17:45:37;14.80;63.50
13093;DHT22;6612;49.568;11.000;2023-04-01T17:48:18;14.80;63.60
13093;DHT22;6612;49.568;11.000;2023-04-01T17:51:03;14.80;63.40